createdAt,value
2022-11-03T00:01:14.695Z,14.35
2022-11-03T00:06:45.375Z,8.35
2022-11-03T00:11:59.672Z,11.98
2022-11-03T00:14:04.085Z,12.13
2022-11-03T00:15:06.969Z,13.30
2022-11-03T00:16:12.079Z,9.48
2022-11-03T00:17:13.369Z,10.75
2022-11-03T00:28:45.581Z,10.63
2022-11-03T00:29:47.918Z,10.90
2022-11-03T00:31:54.580Z,11.88
2022-11-03T00:47:27.601Z,14.35
2022-11-03T00:48:30.702Z,10.57
2022-11-03T00:49:32.593Z,8.15
2022-11-03T01:08:07.379Z,9.10
2022-11-03T01:09:09.647Z,10.57
2022-11-03T01:10:11.812Z,13.57
2022-11-03T01:11:39.585Z,9.43
2022-11-03T01:30:35.416Z,11.27
2022-11-03T01:33:42.942Z,9.10
2022-11-03T01:37:51.541Z,7.68
2022-11-03T01:41:03.193Z,9.23
2022-11-03T01:42:06.665Z,8.63
2022-11-03T01:47:28.240Z,7.53
2022-11-03T01:54:50.810Z,5.65
2022-11-03T01:55:54.659Z,10.45
2022-11-03T01:56:58.685Z,8.23
2022-11-03T02:01:09.717Z,7.72
2022-11-03T02:04:26.873Z,10.15
2022-11-03T02:05:29.612Z,8.63
2022-11-03T02:06:31.977Z,6.93
2022-11-03T02:07:39.018Z,7.00
2022-11-03T02:08:46.385Z,7.00
2022-11-03T02:09:48.624Z,12.95
2022-11-03T02:26:59.885Z,9.02
2022-11-03T02:28:02.504Z,8.50
2022-11-03T02:52:28.595Z,7.00
2022-11-03T02:53:33.217Z,6.45
2022-11-03T02:54:44.699Z,8.55
2022-11-03T02:55:55.929Z,8.52
2022-11-03T02:57:01.243Z,8.40
2022-11-03T02:58:21.565Z,7.45
2022-11-03T03:12:57.829Z,6.10
2022-11-03T03:14:00.640Z,6.00
2022-11-03T03:15:07.012Z,6.68
2022-11-03T03:21:26.151Z,8.38
2022-11-03T03:22:43.442Z,5.90
2022-11-03T03:23:50.186Z,8.90
2022-11-03T03:24:58.860Z,7.75
2022-11-03T03:26:20.441Z,8.48
2022-11-03T03:27:27.000Z,9.50
2022-11-03T03:28:51.485Z,11.25
2022-11-03T03:29:55.751Z,8.25
2022-11-03T03:31:00.325Z,9.13
2022-11-03T03:32:03.531Z,6.55
2022-11-03T03:33:09.764Z,7.40
2022-11-03T03:34:33.338Z,8.40
2022-11-03T03:35:39.014Z,6.10
2022-11-03T03:36:42.657Z,9.05
2022-11-03T03:37:46.693Z,6.38
2022-11-03T03:38:53.243Z,6.93
2022-11-03T03:39:58.178Z,8.10
2022-11-03T03:41:10.354Z,10.35
2022-11-03T03:42:14.621Z,8.88
2022-11-03T03:43:20.499Z,8.82
2022-11-03T03:44:25.065Z,5.13
2022-11-03T03:45:26.860Z,6.47
2022-11-03T03:46:31.432Z,7.57
2022-11-03T03:47:34.494Z,10.40
2022-11-03T03:48:37.170Z,9.20
2022-11-03T03:49:42.053Z,9.73
2022-11-03T03:50:46.591Z,7.10
2022-11-03T03:51:50.408Z,8.15
2022-11-03T03:53:00.057Z,8.90
2022-11-03T03:54:01.916Z,8.02
2022-11-03T03:55:04.292Z,9.60
2022-11-03T03:56:05.981Z,8.02
2022-11-03T03:57:12.834Z,8.32
2022-11-03T03:58:16.063Z,6.35
2022-11-03T04:04:32.712Z,10.35
2022-11-03T04:15:23.537Z,7.50
2022-11-03T04:23:13.401Z,9.80
2022-11-03T04:24:15.870Z,9.25
2022-11-03T04:25:17.351Z,9.93
2022-11-03T04:26:23.296Z,7.82
2022-11-03T04:27:32.408Z,8.85
2022-11-03T04:28:35.289Z,6.80
2022-11-03T04:29:36.672Z,8.82
2022-11-03T04:31:42.851Z,8.35
2022-11-03T04:32:46.201Z,10.15
2022-11-03T04:33:50.760Z,6.43
2022-11-03T04:34:52.480Z,6.90
2022-11-03T04:35:57.438Z,5.53
2022-11-03T04:37:01.277Z,11.32
2022-11-03T04:38:19.304Z,11.00
2022-11-03T04:39:22.223Z,8.07
2022-11-03T04:40:23.779Z,10.18
2022-11-03T04:41:25.925Z,11.38
2022-11-03T04:42:30.906Z,12.93
2022-11-03T04:43:33.480Z,9.40
2022-11-03T04:44:35.701Z,9.43
2022-11-03T04:45:43.867Z,8.50
2022-11-03T04:46:46.905Z,9.88
2022-11-03T04:47:48.198Z,7.40
2022-11-03T04:48:49.709Z,9.65
2022-11-03T04:50:54.433Z,10.50
2022-11-03T04:51:57.533Z,6.60
2022-11-03T04:55:10.804Z,10.27
2022-11-03T04:57:18.174Z,8.77
2022-11-03T04:58:38.625Z,8.52
2022-11-03T04:59:41.664Z,6.82
2022-11-03T05:03:57.466Z,9.25
2022-11-03T05:05:00.728Z,7.15
2022-11-03T05:06:22.590Z,10.75
2022-11-03T05:07:42.415Z,11.48
2022-11-03T05:08:46.618Z,8.55
2022-11-03T05:09:49.480Z,12.48
2022-11-03T05:12:57.594Z,15.35
2022-11-03T05:20:35.747Z,8.45
2022-11-03T05:21:39.232Z,7.80
2022-11-03T05:30:00.965Z,11.80
2022-11-03T05:33:28.622Z,8.20
2022-11-03T05:39:48.560Z,8.13
2022-11-03T05:40:52.756Z,12.38
2022-11-03T05:41:55.264Z,9.50
2022-11-03T05:47:32.121Z,9.13
2022-11-03T05:48:39.340Z,12.32
2022-11-03T05:49:40.861Z,9.15
2022-11-03T05:50:43.172Z,13.48
2022-11-03T05:51:45.899Z,11.93
2022-11-03T05:52:51.264Z,11.02
2022-11-03T05:53:55.947Z,19.63
2022-11-03T05:55:01.488Z,11.70
2022-11-03T05:56:04.538Z,12.48
2022-11-03T06:09:48.864Z,17.25
2022-11-03T07:09:05.197Z,28.92
2022-11-03T07:10:08.279Z,23.77
2022-11-03T07:11:28.658Z,24.45
2022-11-03T07:12:29.949Z,22.45
2022-11-03T07:13:33.622Z,21.02
2022-11-03T07:17:45.893Z,18.58
2022-11-03T07:18:48.707Z,20.67
2022-11-03T07:19:51.116Z,21.95
2022-11-03T07:20:56.360Z,20.65
2022-11-03T07:22:04.644Z,16.65
2022-11-03T07:23:10.125Z,16.60
2022-11-03T07:24:31.164Z,15.10
2022-11-03T07:25:33.490Z,18.17
2022-11-03T07:26:35.876Z,17.80
2022-11-03T07:27:39.045Z,27.73
2022-11-03T07:28:40.834Z,25.65
2022-11-03T07:35:53.407Z,30.13
2022-11-03T07:37:55.198Z,21.00
2022-11-03T07:39:15.229Z,17.80
2022-11-03T07:40:50.029Z,14.80
2022-11-03T07:41:53.925Z,17.77
2022-11-03T07:43:24.272Z,19.15
2022-11-03T07:44:48.509Z,23.15
2022-11-03T07:46:35.036Z,16.70
2022-11-03T07:48:17.014Z,18.45
2022-11-03T07:49:31.024Z,18.38
2022-11-03T07:50:35.473Z,15.60
2022-11-03T07:51:38.945Z,14.85
2022-11-03T07:52:46.144Z,19.23
2022-11-03T07:53:49.207Z,12.55
2022-11-03T07:55:02.005Z,17.27
2022-11-03T07:56:39.687Z,18.38
2022-11-03T07:57:55.467Z,15.32
2022-11-03T08:06:25.998Z,16.33
2022-11-03T08:08:23.296Z,14.77
2022-11-03T08:09:17.965Z,13.35
2022-11-03T08:12:18.589Z,16.95
2022-11-03T08:13:21.746Z,13.07
2022-11-03T08:14:31.836Z,10.60
2022-11-03T08:15:37.116Z,14.30
2022-11-03T08:16:40.545Z,10.65
2022-11-03T08:17:48.016Z,13.80
2022-11-03T08:19:09.027Z,11.15
2022-11-03T08:20:25.439Z,9.82
2022-11-03T08:21:27.005Z,10.30
2022-11-03T08:23:11.886Z,9.90
2022-11-03T08:24:21.847Z,11.77
2022-11-03T08:25:24.199Z,11.32
2022-11-03T08:26:27.583Z,14.13
2022-11-03T08:27:32.226Z,14.95
2022-11-03T08:28:36.477Z,9.45
2022-11-03T08:29:39.123Z,9.02
2022-11-03T08:30:42.044Z,8.88
2022-11-03T08:31:44.713Z,9.53
2022-11-03T08:33:00.910Z,8.40
2022-11-03T08:34:02.531Z,11.07
2022-11-03T08:35:05.845Z,10.70
2022-11-03T08:36:10.490Z,13.50
2022-11-03T08:37:21.743Z,10.02
2022-11-03T08:38:31.414Z,8.75
2022-11-03T08:39:36.133Z,8.00
2022-11-03T08:40:40.142Z,8.90
2022-11-03T08:41:42.841Z,8.25
2022-11-03T08:42:45.023Z,10.77
2022-11-03T08:43:47.804Z,9.40
2022-11-03T08:44:49.283Z,10.02
2022-11-03T08:45:53.776Z,10.15
2022-11-03T08:46:56.042Z,8.25
2022-11-03T08:48:02.043Z,8.65
2022-11-03T08:49:04.124Z,8.10
2022-11-03T08:50:13.762Z,11.05
2022-11-03T08:51:16.476Z,9.88
2022-11-03T08:52:43.082Z,9.68
2022-11-03T08:54:04.963Z,9.57
2022-11-03T08:55:09.224Z,10.10
2022-11-03T08:56:14.458Z,9.00
2022-11-03T08:57:25.802Z,9.80
2022-11-03T08:58:34.449Z,9.32
2022-11-03T08:59:41.726Z,9.18
2022-11-03T09:01:17.378Z,8.13
2022-11-03T09:02:24.852Z,9.23
2022-11-03T09:03:28.581Z,11.23
2022-11-03T09:04:31.002Z,10.88
2022-11-03T09:05:37.072Z,9.25
2022-11-03T09:06:39.322Z,8.60
2022-11-03T09:10:42.637Z,11.13
2022-11-03T09:11:45.222Z,11.27
2022-11-03T09:12:58.780Z,9.85
2022-11-03T09:14:00.950Z,10.55
2022-11-03T09:15:06.698Z,10.43
2022-11-03T09:16:08.960Z,9.82
2022-11-03T09:17:15.587Z,12.10
2022-11-03T09:18:19.223Z,11.35
2022-11-03T09:19:21.062Z,9.30
2022-11-03T09:20:23.260Z,10.02
2022-11-03T09:21:25.862Z,9.82
2022-11-03T09:22:27.661Z,10.63
2022-11-03T09:23:30.895Z,10.25
2022-11-03T09:24:33.239Z,11.30
2022-11-03T11:32:39.933Z,7.80
2022-11-03T11:33:42.672Z,7.35
2022-11-03T11:34:47.553Z,9.18
2022-11-03T11:35:51.336Z,7.28
2022-11-03T16:44:02.322Z,12.40
2022-11-03T16:45:12.114Z,10.45
2022-11-03T16:46:14.545Z,12.63
2022-11-03T16:47:20.286Z,12.52
2022-11-03T16:48:22.572Z,13.55
2022-11-03T16:49:25.242Z,17.02
2022-11-03T16:50:27.627Z,14.55
2022-11-03T16:51:30.738Z,16.35
2022-11-03T16:52:32.660Z,15.27
2022-11-03T16:53:35.311Z,16.83
2022-11-03T16:54:37.677Z,15.50
2022-11-03T16:55:43.816Z,15.45
2022-11-03T16:56:49.426Z,15.70
2022-11-03T16:57:55.427Z,12.27
2022-11-03T16:58:57.582Z,12.20
2022-11-03T17:00:00.114Z,13.20
2022-11-03T17:01:04.630Z,12.32
2022-11-03T17:02:12.108Z,12.63
2022-11-03T17:03:18.786Z,16.40
2022-11-03T17:04:25.134Z,14.80
2022-11-03T17:05:27.450Z,14.57
2022-11-03T17:06:30.200Z,15.27
2022-11-03T17:07:32.885Z,12.93
2022-11-03T17:09:57.341Z,14.10
2022-11-03T17:11:00.178Z,15.85
2022-11-03T17:12:02.716Z,13.70
2022-11-03T17:13:10.031Z,14.55
2022-11-03T17:14:14.018Z,16.13
2022-11-03T17:15:17.436Z,18.92
2022-11-03T17:16:19.496Z,13.75
2022-11-03T17:17:23.578Z,18.48
2022-11-03T17:18:25.581Z,17.02
2022-11-03T17:19:28.148Z,16.83
2022-11-03T17:20:30.481Z,19.42
2022-11-03T17:21:32.965Z,16.83
2022-11-03T17:22:34.535Z,15.90
2022-11-03T17:23:37.372Z,14.52
2022-11-03T17:24:39.492Z,14.07
2022-11-03T17:25:41.077Z,14.90
2022-11-03T17:27:14.660Z,16.17
2022-11-03T17:28:18.798Z,14.70
2022-11-03T17:29:24.347Z,16.83
2022-11-03T17:30:30.873Z,12.93
2022-11-03T17:31:32.564Z,12.13
2022-11-03T17:32:45.504Z,12.38
2022-11-03T17:33:47.901Z,16.30
2022-11-03T17:34:49.782Z,16.25
2022-11-03T17:35:51.189Z,15.75
2022-11-03T17:37:58.631Z,18.58
2022-11-03T17:39:03.368Z,16.65
2022-11-03T17:40:15.299Z,15.95
2022-11-03T17:41:19.070Z,18.27
2022-11-03T17:42:24.818Z,19.08
2022-11-03T17:43:28.624Z,18.83
2022-11-03T17:44:30.334Z,15.15
2022-11-03T17:45:32.472Z,15.02
2022-11-03T17:46:34.792Z,17.83
2022-11-03T17:47:36.560Z,15.93
2022-11-03T17:48:39.551Z,15.15
2022-11-03T17:49:43.458Z,16.55
2022-11-03T17:50:48.417Z,16.75
2022-11-03T17:51:51.311Z,19.35
2022-11-03T17:52:53.834Z,19.15
2022-11-03T17:53:55.368Z,14.18
2022-11-03T17:54:59.740Z,14.98
2022-11-03T17:57:24.036Z,16.73
2022-11-03T17:58:32.742Z,16.80
2022-11-03T17:59:34.943Z,16.70
2022-11-03T18:00:37.769Z,14.50
2022-11-03T18:01:39.903Z,17.38
2022-11-03T18:02:43.690Z,17.60
2022-11-03T18:03:45.451Z,16.63
2022-11-03T18:04:49.114Z,19.77
2022-11-03T18:05:51.996Z,16.08
2022-11-03T18:06:55.788Z,15.93
2022-11-03T18:07:59.691Z,18.55
2022-11-03T18:09:03.822Z,14.13
2022-11-03T18:10:06.869Z,16.73
2022-11-03T18:11:34.917Z,13.10
2022-11-03T18:12:59.231Z,10.65
2022-11-03T18:14:05.655Z,12.38
2022-11-03T18:15:19.282Z,15.18
2022-11-03T18:16:22.902Z,14.82
2022-11-03T18:17:24.495Z,15.57
2022-11-03T18:18:45.289Z,17.05
2022-11-03T18:19:51.656Z,18.08
2022-11-03T18:20:54.908Z,14.90
2022-11-03T18:21:58.813Z,15.70
2022-11-03T18:23:15.639Z,18.45
2022-11-03T18:24:19.992Z,13.63
2022-11-03T18:25:22.266Z,17.13
2022-11-03T18:26:28.921Z,12.95
2022-11-03T18:27:30.678Z,14.27
2022-11-03T18:28:32.464Z,14.32
2022-11-03T18:29:35.148Z,14.25
2022-11-03T18:30:44.602Z,15.90
2022-11-03T18:31:49.909Z,14.30
2022-11-03T18:32:53.594Z,14.30
2022-11-03T18:33:55.658Z,13.55
2022-11-03T18:34:57.477Z,17.75
2022-11-03T18:36:03.425Z,14.63
2022-11-03T18:37:05.647Z,17.45
2022-11-03T18:38:12.831Z,14.65
2022-11-03T18:39:23.021Z,13.13
2022-11-03T18:40:28.063Z,15.43
2022-11-03T18:41:42.861Z,14.82
2022-11-03T18:42:47.585Z,13.50
2022-11-03T18:43:52.496Z,14.73
2022-11-03T18:45:01.513Z,15.38
2022-11-03T18:46:05.634Z,14.10
2022-11-03T18:47:07.574Z,17.20
2022-11-03T18:48:15.629Z,13.95
2022-11-03T18:49:19.205Z,13.15
2022-11-03T18:50:21.777Z,13.73
2022-11-03T18:51:24.354Z,15.32
2022-11-03T18:52:27.070Z,16.85
2022-11-03T18:53:30.359Z,15.20
2022-11-03T18:54:35.312Z,17.58
2022-11-03T18:55:37.593Z,17.77
2022-11-03T18:56:39.631Z,16.23
2022-11-03T18:57:44.165Z,15.13
2022-11-03T18:58:51.357Z,13.68
2022-11-03T18:59:54.033Z,13.85
2022-11-03T19:00:55.658Z,14.23
2022-11-03T19:01:58.354Z,16.50
2022-11-03T19:03:00.555Z,15.73
2022-11-03T19:04:03.041Z,18.02
2022-11-03T19:05:13.329Z,15.90
2022-11-03T19:06:17.270Z,13.68
2022-11-03T19:07:31.428Z,13.57
2022-11-03T19:08:33.858Z,12.48
2022-11-03T19:09:37.247Z,16.00
2022-11-03T19:10:42.269Z,14.63
2022-11-03T19:11:44.667Z,13.68
2022-11-03T19:12:47.700Z,13.57
2022-11-03T19:13:51.812Z,12.15
2022-11-03T19:14:56.463Z,12.25
2022-11-03T19:16:00.172Z,11.65
2022-11-03T19:17:24.345Z,15.18
2022-11-03T19:18:28.253Z,13.38
2022-11-03T19:19:31.072Z,16.23
2022-11-03T19:20:32.585Z,14.68
2022-11-03T19:21:34.970Z,11.68
2022-11-03T19:22:36.526Z,12.10
2022-11-03T19:23:39.077Z,13.00
2022-11-03T19:24:41.805Z,15.63
2022-11-03T19:25:45.438Z,14.05
2022-11-03T19:26:57.050Z,13.60
2022-11-03T19:28:01.455Z,12.73
2022-11-03T19:29:09.185Z,13.55
2022-11-03T19:30:18.162Z,11.45
2022-11-03T19:31:31.187Z,13.43
2022-11-03T19:32:39.701Z,14.63
2022-11-03T19:33:45.094Z,15.65
2022-11-03T19:34:50.213Z,14.73
2022-11-03T19:35:52.729Z,15.75
2022-11-03T19:36:54.740Z,12.25
2022-11-03T19:38:06.783Z,14.20
2022-11-03T19:39:22.978Z,17.02
2022-11-03T19:40:25.485Z,14.50
2022-11-03T19:41:46.258Z,16.40
2022-11-03T19:42:49.079Z,15.30
2022-11-03T19:43:50.623Z,15.60
2022-11-03T19:44:58.301Z,14.75
2022-11-03T19:46:00.509Z,14.70
2022-11-03T19:47:03.165Z,17.27
2022-11-03T19:49:35.149Z,18.42
2022-11-03T19:50:37.637Z,18.38
2022-11-03T19:51:40.814Z,19.77
2022-11-03T19:52:45.979Z,18.17
2022-11-03T19:53:49.617Z,16.35
2022-11-03T19:54:52.835Z,16.55
2022-11-03T19:55:55.618Z,14.65
2022-11-03T19:56:59.887Z,13.98
2022-11-03T19:58:18.406Z,13.60
2022-11-03T19:59:19.838Z,11.15
2022-11-03T20:00:23.230Z,12.25
2022-11-03T20:01:27.931Z,12.00
2022-11-03T20:02:30.522Z,11.65
2022-11-03T20:03:32.552Z,13.48
2022-11-03T20:04:35.298Z,14.57
2022-11-03T20:05:39.030Z,14.25
2022-11-03T20:06:41.005Z,14.02
2022-11-03T20:07:46.771Z,24.80
2022-11-03T20:08:48.584Z,18.00
2022-11-03T20:09:50.599Z,13.27
2022-11-03T20:10:53.445Z,14.60
2022-11-03T20:12:04.337Z,14.68
2022-11-03T20:13:10.598Z,13.73
2022-11-03T20:14:17.784Z,16.00
2022-11-03T20:15:24.337Z,15.82
2022-11-03T20:16:31.616Z,11.55
2022-11-03T20:17:33.528Z,14.43
2022-11-03T20:18:35.718Z,15.27
2022-11-03T20:19:38.893Z,15.30
2022-11-03T20:20:42.549Z,13.32
2022-11-03T20:21:47.630Z,14.75
2022-11-03T20:22:53.003Z,15.45
2022-11-03T20:23:55.806Z,14.63
2022-11-03T20:25:03.346Z,17.70
2022-11-03T20:26:15.016Z,16.38
2022-11-03T20:27:21.689Z,14.60
2022-11-03T20:28:27.926Z,17.55
2022-11-03T20:29:34.749Z,16.27
2022-11-03T20:30:40.103Z,17.40
2022-11-03T20:31:43.676Z,15.98
2022-11-03T20:32:48.273Z,15.90
2022-11-03T20:33:50.858Z,17.58
2022-11-03T20:34:55.470Z,14.45
2022-11-03T20:35:58.642Z,15.15
2022-11-03T20:37:04.553Z,14.95
2022-11-03T20:38:12.509Z,16.85
2022-11-03T20:39:18.430Z,15.20
2022-11-03T20:40:23.914Z,12.55
2022-11-03T20:41:29.291Z,12.55
2022-11-03T20:42:32.357Z,12.70
2022-11-03T20:43:40.401Z,16.63
2022-11-03T20:44:44.010Z,14.60
2022-11-03T20:45:45.409Z,17.30
2022-11-03T20:46:47.545Z,18.33
2022-11-03T20:47:51.667Z,12.88
2022-11-03T20:48:57.806Z,15.43
2022-11-03T20:49:59.686Z,13.73
2022-11-03T20:51:04.263Z,13.02
2022-11-03T20:52:12.888Z,14.40
2022-11-03T20:53:21.251Z,13.15
2022-11-03T20:54:23.194Z,13.40
2022-11-03T20:55:31.103Z,12.90
2022-11-03T20:56:34.565Z,15.20
2022-11-03T20:57:37.734Z,12.35
2022-11-03T20:58:39.579Z,14.40
2022-11-03T20:59:41.569Z,12.95
2022-11-03T21:00:46.110Z,14.43
2022-11-03T21:01:47.700Z,13.27
2022-11-03T21:02:51.149Z,12.32
2022-11-03T21:04:00.233Z,11.18
2022-11-03T21:05:04.489Z,11.52
2022-11-03T21:06:07.061Z,13.30
2022-11-03T21:07:15.371Z,12.77
2022-11-03T21:08:23.641Z,9.27
2022-11-03T21:09:27.186Z,10.68
2022-11-03T21:10:28.595Z,10.20
2022-11-03T21:11:37.109Z,9.90
2022-11-03T21:12:39.810Z,10.65
2022-11-03T21:13:43.487Z,10.80
2022-11-03T21:15:11.413Z,13.18
2022-11-03T21:16:34.289Z,11.85
2022-11-03T21:17:55.305Z,10.32
2022-11-03T21:19:17.395Z,10.95
2022-11-03T21:20:20.230Z,9.32
2022-11-03T21:21:22.725Z,10.73
2022-11-03T21:22:52.485Z,10.85
2022-11-03T21:23:55.881Z,9.15
2022-11-03T21:25:00.772Z,11.05
2022-11-03T21:26:03.390Z,9.93
2022-11-03T21:27:05.974Z,10.70
2022-11-03T21:28:08.171Z,7.78
2022-11-03T21:29:19.610Z,8.88
2022-11-03T21:30:31.946Z,8.80
2022-11-03T21:31:34.398Z,9.93
2022-11-03T21:32:37.859Z,10.32
2022-11-03T21:33:40.006Z,11.10
2022-11-03T21:34:41.925Z,11.55
2022-11-03T21:35:45.612Z,11.60
2022-11-03T21:36:47.758Z,12.02
2022-11-03T21:37:50.842Z,12.68
2022-11-03T21:38:52.688Z,12.27
2022-11-03T21:39:55.371Z,11.43
2022-11-03T21:41:18.449Z,10.82
2022-11-03T21:42:40.334Z,11.07
2022-11-03T21:44:01.310Z,10.88
2022-11-03T21:45:04.058Z,12.57
2022-11-03T21:46:19.632Z,11.40
2022-11-03T21:47:21.893Z,11.95
2022-11-03T21:48:42.396Z,10.95
2022-11-03T21:49:45.368Z,11.45
2022-11-03T21:50:47.946Z,11.95
2022-11-03T21:51:50.446Z,12.77
2022-11-03T21:52:52.906Z,12.55
2022-11-03T21:53:54.731Z,12.52
2022-11-03T21:55:03.877Z,13.25
2022-11-03T21:56:05.896Z,10.95
2022-11-03T21:57:09.470Z,9.80
2022-11-03T21:58:14.376Z,11.57
2022-11-03T21:59:17.032Z,11.45
2022-11-03T22:00:19.595Z,11.52
2022-11-03T22:01:22.064Z,13.33
2022-11-03T22:02:31.579Z,11.75
2022-11-03T22:03:33.933Z,10.65
2022-11-03T22:04:37.243Z,10.55
2022-11-03T22:05:40.610Z,10.68
2022-11-03T22:06:45.158Z,11.23
2022-11-03T22:07:46.605Z,9.32
2022-11-03T22:08:48.650Z,13.13
2022-11-03T22:09:50.990Z,12.82
2022-11-03T22:10:53.579Z,14.20
2022-11-03T22:11:55.639Z,14.57
2022-11-03T22:12:58.297Z,14.23
2022-11-03T22:14:03.551Z,13.25
2022-11-03T22:15:26.446Z,11.93
2022-11-03T22:16:44.143Z,14.07
2022-11-03T22:17:45.603Z,12.95
2022-11-03T22:19:15.012Z,12.20
2022-11-03T22:20:37.351Z,11.70
2022-11-03T22:22:00.357Z,14.07
2022-11-03T22:23:22.629Z,12.93
2022-11-03T22:24:44.322Z,11.63
2022-11-03T22:26:06.359Z,12.07
2022-11-03T22:27:08.778Z,12.05
2022-11-03T22:28:14.544Z,13.13
2022-11-03T22:29:36.585Z,12.70
2022-11-03T22:31:01.366Z,15.50
2022-11-03T22:32:05.038Z,18.20
2022-11-03T22:33:07.532Z,14.63
2022-11-03T22:34:29.348Z,12.77
2022-11-03T22:35:50.076Z,12.75
2022-11-03T22:36:51.745Z,12.80
2022-11-03T22:38:12.718Z,10.60
2022-11-03T22:39:34.206Z,10.52
2022-11-03T22:40:57.369Z,12.77
2022-11-03T22:42:19.517Z,9.35
2022-11-03T22:43:42.481Z,10.63
2022-11-03T22:45:04.238Z,8.45
2022-11-03T22:46:07.879Z,9.15
2022-11-03T22:47:13.337Z,9.50
2022-11-03T22:48:23.874Z,11.00
2022-11-03T22:49:25.660Z,10.23
2022-11-03T22:50:34.132Z,9.75
2022-11-03T22:51:37.987Z,9.70
2022-11-03T22:52:40.488Z,10.07
2022-11-03T22:54:03.444Z,10.15
2022-11-03T22:55:06.510Z,9.77
2022-11-03T22:56:08.393Z,9.63
2022-11-03T22:57:16.082Z,10.80
2022-11-03T22:58:20.178Z,10.43
2022-11-03T22:59:22.725Z,10.82
2022-11-03T23:00:24.958Z,10.13
2022-11-03T23:01:28.338Z,9.85
2022-11-03T23:02:30.997Z,10.88
2022-11-03T23:03:35.910Z,9.82
2022-11-03T23:04:37.601Z,10.45
2022-11-03T23:05:40.212Z,10.73
2022-11-03T23:06:41.755Z,12.48
2022-11-03T23:07:45.521Z,10.27
2022-11-03T23:08:49.308Z,10.80
2022-11-03T23:09:52.630Z,11.48
2022-11-03T23:10:54.658Z,9.80
2022-11-03T23:11:57.126Z,11.18
2022-11-03T23:12:58.710Z,10.38
2022-11-03T23:14:04.738Z,9.88
2022-11-03T23:15:28.433Z,10.73
2022-11-03T23:16:41.285Z,12.65
2022-11-03T23:18:05.398Z,12.57
2022-11-03T23:19:31.281Z,10.20
2022-11-03T23:20:59.781Z,11.98
2022-11-03T23:22:01.832Z,11.27
2022-11-03T23:23:04.824Z,11.23
2022-11-03T23:24:28.876Z,10.60
2022-11-03T23:25:32.015Z,10.10
2022-11-03T23:26:33.840Z,10.95
2022-11-03T23:27:38.428Z,10.60
2022-11-03T23:28:43.715Z,9.82
2022-11-03T23:29:48.299Z,10.63
2022-11-03T23:30:53.678Z,13.52
2022-11-03T23:31:57.694Z,10.82
2022-11-03T23:33:00.454Z,9.45
2022-11-03T23:34:07.444Z,10.27
2022-11-03T23:35:09.636Z,9.90
2022-11-03T23:36:14.998Z,9.57
2022-11-03T23:37:18.611Z,12.15
2022-11-03T23:38:20.795Z,11.13
2022-11-03T23:39:24.262Z,11.73
2022-11-03T23:40:26.732Z,9.87
2022-11-03T23:41:31.739Z,10.30
2022-11-03T23:42:33.661Z,10.05
2022-11-03T23:43:36.254Z,10.90
2022-11-03T23:44:59.510Z,11.23
2022-11-03T23:46:20.377Z,10.98
2022-11-03T23:47:41.374Z,11.90
2022-11-03T23:48:48.120Z,11.05
2022-11-03T23:49:49.656Z,11.82
2022-11-03T23:50:52.674Z,11.02
2022-11-03T23:51:54.533Z,12.25
2022-11-03T23:52:56.242Z,12.03
2022-11-03T23:53:59.393Z,12.73
2022-11-03T23:55:00.910Z,12.55
2022-11-03T23:56:21.571Z,11.30
2022-11-03T23:57:44.529Z,11.55
2022-11-03T23:58:51.494Z,11.63
2022-11-03T23:59:53.788Z,11.63
